createdAt,value
2019-01-26T00:00:30.490Z,57.30
2019-01-26T00:01:31.496Z,57.30
2019-01-26T00:02:32.514Z,57.30
2019-01-26T00:03:33.535Z,57.30
2019-01-26T00:04:34.676Z,57.30
2019-01-26T00:05:35.800Z,57.20
2019-01-26T00:06:36.809Z,57.20
2019-01-26T00:07:37.816Z,57.20
2019-01-26T00:08:38.839Z,57.20
2019-01-26T00:09:39.875Z,57.30
2019-01-26T00:10:41.129Z,57.30
2019-01-26T00:11:42.194Z,57.30
2019-01-26T00:12:43.214Z,57.30
2019-01-26T00:13:44.226Z,57.30
2019-01-26T00:14:45.247Z,57.30
2019-01-26T00:15:46.455Z,57.00
2019-01-26T00:16:47.516Z,57.30
2019-01-26T00:17:48.541Z,57.30
2019-01-26T00:18:49.551Z,57.30
2019-01-26T00:19:50.577Z,57.30
2019-01-26T00:20:51.595Z,57.40
2019-01-26T00:21:52.624Z,57.00
2019-01-26T00:22:53.647Z,57.30
2019-01-26T00:23:54.651Z,57.30
2019-01-26T00:24:55.702Z,57.30
2019-01-26T00:25:56.711Z,57.30
2019-01-26T00:26:57.721Z,57.30
2019-01-26T00:27:58.734Z,57.20
2019-01-26T00:28:59.739Z,57.00
2019-01-26T00:30:00.778Z,57.20
2019-01-26T00:31:01.894Z,57.20
2019-01-26T00:32:03.104Z,57.30
2019-01-26T00:33:04.328Z,57.10
2019-01-26T00:34:05.368Z,56.80
2019-01-26T00:35:07.083Z,57.00
2019-01-26T00:36:08.113Z,56.70
2019-01-26T00:37:09.124Z,57.00
2019-01-26T00:38:10.245Z,56.70
2019-01-26T00:39:11.271Z,56.80
2019-01-26T00:40:12.606Z,56.90
2019-01-26T00:41:13.614Z,56.70
2019-01-26T00:42:14.633Z,56.60
2019-01-26T00:43:15.646Z,56.80
2019-01-26T00:44:16.659Z,56.70
2019-01-26T00:45:17.688Z,56.40
2019-01-26T00:46:18.715Z,57.00
2019-01-26T00:47:19.759Z,56.40
2019-01-26T00:48:20.767Z,56.50
2019-01-26T00:49:21.800Z,56.60
2019-01-26T00:50:22.829Z,56.70
2019-01-26T00:51:23.844Z,56.50
2019-01-26T00:52:24.872Z,57.00
2019-01-26T00:53:25.905Z,56.70
2019-01-26T00:54:26.932Z,56.80
2019-01-26T00:55:27.968Z,57.00
2019-01-26T00:56:29.122Z,57.30
2019-01-26T00:57:30.132Z,57.40
2019-01-26T00:58:34.416Z,57.40
2019-01-26T00:59:35.596Z,57.60
2019-01-26T01:00:36.616Z,57.70
2019-01-26T01:01:37.734Z,58.40
2019-01-26T01:02:38.876Z,58.80
2019-01-26T01:03:40.191Z,59.00
2019-01-26T01:04:41.609Z,59.40
2019-01-26T01:05:42.959Z,59.70
2019-01-26T01:06:44.059Z,59.80
2019-01-26T01:07:45.094Z,60.30
2019-01-26T01:08:46.199Z,60.40
2019-01-26T01:09:47.255Z,60.70
2019-01-26T01:10:48.364Z,61.10
2019-01-26T01:11:49.387Z,60.80
2019-01-26T01:12:50.404Z,61.60
2019-01-26T01:13:51.419Z,61.60
2019-01-26T01:14:52.440Z,62.40
2019-01-26T01:15:53.493Z,63.10
2019-01-26T01:16:54.492Z,63.70
2019-01-26T01:17:55.501Z,64.10
2019-01-26T01:18:56.538Z,64.20
2019-01-26T01:19:57.635Z,63.80
2019-01-26T01:20:58.690Z,63.90
2019-01-26T01:21:59.784Z,64.20
2019-01-26T01:23:01.236Z,64.90
2019-01-26T01:24:02.366Z,65.00
2019-01-26T01:25:08.954Z,65.80
2019-01-26T01:26:10.054Z,65.50
2019-01-26T01:27:11.156Z,65.70
2019-01-26T01:28:12.172Z,65.80
2019-01-26T01:29:13.198Z,65.50
2019-01-26T01:30:23.743Z,65.80
2019-01-26T01:31:24.756Z,66.20
2019-01-26T01:32:25.787Z,66.50
2019-01-26T01:33:26.818Z,67.60
2019-01-26T01:34:27.837Z,67.30
2019-01-26T01:35:28.856Z,66.80
2019-01-26T01:36:29.909Z,66.80
2019-01-26T01:37:30.917Z,66.70
2019-01-26T01:38:31.967Z,66.80
2019-01-26T01:39:33.038Z,67.10
2019-01-26T01:40:34.084Z,67.00
2019-01-26T01:41:35.103Z,67.30
2019-01-26T01:42:36.176Z,67.50
2019-01-26T01:43:37.171Z,67.40
2019-01-26T01:44:38.186Z,67.80
2019-01-26T01:45:39.291Z,67.80
2019-01-26T01:46:43.055Z,67.40
2019-01-26T01:47:43.316Z,67.20
2019-01-26T01:48:44.335Z,67.10
2019-01-26T01:49:45.630Z,67.50
2019-01-26T01:50:46.652Z,67.40
2019-01-26T01:51:47.680Z,67.00
2019-01-26T01:52:48.691Z,66.50
2019-01-26T01:53:49.713Z,66.80
2019-01-26T01:54:50.728Z,66.50
2019-01-26T01:55:51.751Z,66.60
2019-01-26T01:56:52.873Z,66.50
2019-01-26T01:57:53.880Z,66.50
2019-01-26T01:58:54.913Z,67.10
2019-01-26T01:59:55.917Z,67.20
2019-01-26T02:00:56.937Z,67.30
2019-01-26T02:01:57.964Z,67.20
2019-01-26T02:02:58.979Z,66.70
2019-01-26T02:04:00.013Z,67.50
2019-01-26T02:05:01.045Z,67.00
2019-01-26T02:06:02.251Z,66.70
2019-01-26T02:07:03.383Z,67.20
2019-01-26T02:08:04.397Z,67.40
2019-01-26T02:09:06.119Z,67.10
2019-01-26T02:10:13.377Z,67.30
2019-01-26T02:11:14.399Z,67.40
2019-01-26T02:12:15.435Z,67.30
2019-01-26T02:13:16.472Z,67.80
2019-01-26T02:14:17.558Z,67.80
2019-01-26T02:15:18.676Z,67.90
2019-01-26T02:16:19.688Z,68.00
2019-01-26T02:17:20.718Z,68.00
2019-01-26T02:18:21.737Z,68.00
2019-01-26T02:19:22.758Z,68.30
2019-01-26T02:20:24.582Z,68.50
2019-01-26T02:21:25.648Z,68.90
2019-01-26T02:22:26.703Z,69.10
2019-01-26T02:23:27.728Z,69.10
2019-01-26T02:24:28.760Z,70.10
2019-01-26T02:25:29.791Z,70.40
2019-01-26T02:26:30.857Z,70.80
2019-01-26T02:27:31.956Z,71.20
2019-01-26T02:28:32.966Z,71.40
2019-01-26T02:29:34.008Z,71.90
2019-01-26T02:30:35.027Z,72.00
2019-01-26T02:31:36.143Z,72.10
2019-01-26T02:32:39.195Z,72.30
2019-01-26T02:33:40.217Z,72.50
2019-01-26T02:34:41.256Z,72.40
2019-01-26T02:35:42.336Z,72.60
2019-01-26T02:36:43.357Z,72.70
2019-01-26T02:37:44.400Z,72.60
2019-01-26T02:38:45.420Z,72.00
2019-01-26T02:39:46.448Z,71.50
2019-01-26T02:40:47.555Z,71.80
2019-01-26T02:41:48.576Z,71.60
2019-01-26T02:42:49.607Z,71.40
2019-01-26T02:43:50.617Z,71.20
2019-01-26T02:44:51.620Z,70.90
2019-01-26T02:45:54.379Z,70.90
2019-01-26T02:46:58.129Z,70.60
2019-01-26T02:47:58.299Z,70.70
2019-01-26T02:48:59.321Z,70.70
2019-01-26T02:50:00.324Z,70.70
2019-01-26T02:51:01.344Z,70.70
2019-01-26T02:52:02.456Z,70.10
2019-01-26T02:53:03.490Z,69.80
2019-01-26T02:54:04.601Z,70.00
2019-01-26T02:55:05.720Z,70.20
2019-01-26T02:56:06.744Z,70.20
2019-01-26T02:57:07.816Z,70.00
2019-01-26T02:58:08.871Z,69.60
2019-01-26T02:59:09.889Z,69.20
2019-01-26T03:00:21.120Z,69.50
2019-01-26T03:01:22.140Z,69.50
2019-01-26T03:02:23.171Z,69.20
2019-01-26T03:03:24.196Z,69.40
2019-01-26T03:04:25.207Z,69.50
2019-01-26T03:05:26.224Z,69.40
2019-01-26T03:06:27.243Z,69.30
2019-01-26T03:07:28.249Z,69.20
2019-01-26T03:08:29.297Z,69.30
2019-01-26T03:09:30.395Z,69.50
2019-01-26T03:10:31.403Z,69.30
2019-01-26T03:11:32.424Z,69.20
2019-01-26T03:12:33.438Z,69.60
2019-01-26T03:13:34.465Z,69.50
2019-01-26T03:14:35.480Z,69.40
2019-01-26T03:15:36.508Z,69.10
2019-01-26T03:16:37.512Z,69.40
2019-01-26T03:17:38.658Z,69.20
2019-01-26T03:18:39.736Z,70.00
2019-01-26T03:19:40.804Z,69.90
2019-01-26T03:20:41.824Z,68.90
2019-01-26T03:21:42.830Z,68.90
2019-01-26T03:22:43.863Z,69.10
2019-01-26T03:23:44.869Z,68.90
2019-01-26T03:24:45.907Z,69.10
2019-01-26T03:25:46.929Z,69.10
2019-01-26T03:26:47.960Z,69.20
2019-01-26T03:27:48.974Z,69.30
2019-01-26T03:28:50.007Z,69.30
2019-01-26T03:29:51.029Z,69.20
2019-01-26T03:30:52.037Z,69.40
2019-01-26T03:31:53.060Z,69.50
2019-01-26T03:32:54.095Z,69.20
2019-01-26T03:33:55.095Z,69.30
2019-01-26T03:34:56.116Z,69.60
2019-01-26T03:35:57.120Z,69.60
2019-01-26T03:36:58.137Z,69.50
2019-01-26T03:37:59.149Z,69.70
2019-01-26T03:39:00.184Z,70.00
2019-01-26T03:40:01.202Z,69.80
2019-01-26T03:41:02.541Z,69.50
2019-01-26T03:42:03.855Z,69.40
2019-01-26T03:43:04.881Z,69.50
2019-01-26T03:44:05.919Z,69.60
2019-01-26T03:45:09.156Z,69.60
2019-01-26T03:46:10.175Z,69.70
2019-01-26T03:47:13.793Z,69.70
2019-01-26T03:48:14.136Z,69.80
2019-01-26T03:49:15.184Z,69.40
2019-01-26T03:50:16.385Z,69.50
2019-01-26T03:51:17.397Z,69.40
2019-01-26T03:52:18.408Z,69.40
2019-01-26T03:53:19.416Z,69.30
2019-01-26T03:54:20.740Z,69.20
2019-01-26T03:55:21.859Z,68.80
2019-01-26T03:56:22.887Z,69.30
2019-01-26T03:57:23.897Z,68.70
2019-01-26T03:58:24.917Z,68.70
2019-01-26T03:59:25.937Z,68.90
2019-01-26T04:00:26.958Z,68.90
2019-01-26T04:01:28.282Z,68.60
2019-01-26T04:02:29.314Z,68.30
2019-01-26T04:03:30.628Z,68.00
2019-01-26T04:04:31.686Z,68.10
2019-01-26T04:05:32.802Z,67.90
2019-01-26T04:06:33.838Z,67.40
2019-01-26T04:07:34.862Z,67.40
2019-01-26T04:08:35.879Z,67.40
2019-01-26T04:09:36.900Z,67.40
2019-01-26T04:10:37.910Z,67.40
2019-01-26T04:11:39.007Z,67.40
2019-01-26T04:12:40.069Z,67.40
2019-01-26T04:13:41.086Z,67.50
2019-01-26T04:14:42.108Z,67.40
2019-01-26T04:15:43.121Z,67.50
2019-01-26T04:16:44.125Z,67.40
2019-01-26T04:17:45.558Z,67.50
2019-01-26T04:18:46.585Z,67.50
2019-01-26T04:19:47.616Z,67.60
2019-01-26T04:20:48.627Z,68.20
2019-01-26T04:21:49.628Z,67.90
2019-01-26T04:22:50.649Z,67.40
2019-01-26T04:23:51.660Z,68.30
2019-01-26T04:24:52.687Z,67.50
2019-01-26T04:25:53.717Z,67.50
2019-01-26T04:26:54.733Z,67.50
2019-01-26T04:27:55.755Z,67.50
2019-01-26T04:28:56.768Z,67.60
2019-01-26T04:29:57.801Z,67.60
2019-01-26T04:30:58.811Z,67.50
2019-01-26T04:31:59.811Z,67.40
2019-01-26T04:33:00.846Z,67.50
2019-01-26T04:34:01.859Z,67.20
2019-01-26T04:35:04.991Z,67.00
2019-01-26T04:36:06.334Z,66.80
2019-01-26T04:37:07.537Z,67.00
2019-01-26T04:38:08.543Z,67.00
2019-01-26T04:39:09.557Z,67.10
2019-01-26T04:40:13.474Z,66.60
2019-01-26T04:41:14.480Z,66.50
2019-01-26T04:42:15.503Z,66.80
2019-01-26T04:43:16.526Z,66.40
2019-01-26T04:44:17.557Z,66.70
2019-01-26T04:45:20.384Z,66.60
2019-01-26T04:46:21.394Z,66.50
2019-01-26T04:47:30.481Z,66.70
2019-01-26T04:48:25.331Z,66.70
2019-01-26T04:49:26.341Z,66.90
2019-01-26T04:50:27.366Z,66.90
2019-01-26T04:51:28.390Z,66.70
2019-01-26T04:52:29.480Z,66.90
2019-01-26T04:53:30.510Z,66.70
2019-01-26T04:54:31.522Z,66.90
2019-01-26T04:55:32.556Z,67.70
2019-01-26T04:56:33.565Z,67.10
2019-01-26T04:57:34.573Z,66.80
2019-01-26T04:58:35.600Z,66.60
2019-01-26T04:59:36.617Z,66.60
2019-01-26T05:00:37.641Z,66.70
2019-01-26T05:01:38.655Z,66.90
2019-01-26T05:02:39.672Z,66.90
2019-01-26T05:03:40.744Z,67.00
2019-01-26T05:04:41.759Z,67.00
2019-01-26T05:05:42.891Z,66.80
2019-01-26T05:06:43.926Z,66.80
2019-01-26T05:07:44.959Z,66.60
2019-01-26T05:08:45.968Z,66.40
2019-01-26T05:09:46.981Z,66.40
2019-01-26T05:10:48.003Z,66.30
2019-01-26T05:11:49.026Z,66.20
2019-01-26T05:12:50.059Z,66.00
2019-01-26T05:13:51.150Z,66.00
2019-01-26T05:14:52.177Z,66.10
2019-01-26T05:15:53.215Z,66.00
2019-01-26T05:16:54.251Z,66.20
2019-01-26T05:17:55.273Z,66.20
2019-01-26T05:18:56.370Z,66.40
2019-01-26T05:19:57.390Z,66.40
2019-01-26T05:20:58.420Z,66.30
2019-01-26T05:21:59.445Z,66.40
2019-01-26T05:23:00.452Z,66.50
2019-01-26T05:24:01.575Z,66.50
2019-01-26T05:25:04.581Z,66.60
2019-01-26T05:26:05.624Z,66.60
2019-01-26T05:27:06.628Z,66.70
2019-01-26T05:28:07.637Z,66.70
2019-01-26T05:29:08.651Z,67.60
2019-01-26T05:30:13.083Z,66.90
2019-01-26T05:31:14.101Z,67.00
2019-01-26T05:32:15.121Z,67.00
2019-01-26T05:33:16.145Z,66.90
2019-01-26T05:34:17.439Z,66.80
2019-01-26T05:35:18.446Z,67.10
2019-01-26T05:36:19.476Z,67.30
2019-01-26T05:37:20.491Z,67.20
2019-01-26T05:38:21.512Z,66.70
2019-01-26T05:39:22.795Z,66.70
2019-01-26T05:40:23.816Z,67.00
2019-01-26T05:41:24.835Z,67.20
2019-01-26T05:42:25.849Z,67.60
2019-01-26T05:43:26.861Z,67.40
2019-01-26T05:44:27.863Z,67.50
2019-01-26T05:45:28.884Z,67.80
2019-01-26T05:46:29.908Z,68.40
2019-01-26T05:47:30.932Z,67.90
2019-01-26T05:48:31.933Z,68.30
2019-01-26T05:49:32.940Z,67.90
2019-01-26T05:50:33.973Z,67.60
2019-01-26T05:51:34.972Z,67.20
2019-01-26T05:52:35.991Z,67.30
2019-01-26T05:53:37.002Z,67.50
2019-01-26T05:54:38.016Z,67.20
2019-01-26T05:55:39.033Z,67.20
2019-01-26T05:56:40.056Z,67.20
2019-01-26T05:57:41.068Z,67.40
2019-01-26T05:58:42.176Z,67.40
2019-01-26T05:59:43.179Z,67.50
2019-01-26T06:00:44.202Z,68.00
2019-01-26T06:01:45.228Z,68.20
2019-01-26T06:02:46.245Z,67.60
2019-01-26T06:03:47.265Z,67.60
2019-01-26T06:04:48.320Z,67.60
2019-01-26T06:05:49.325Z,67.80
2019-01-26T06:06:50.348Z,67.70
2019-01-26T06:07:51.377Z,67.60
2019-01-26T06:08:52.374Z,67.40
2019-01-26T06:09:53.408Z,67.60
2019-01-26T06:10:54.409Z,67.70
2019-01-26T06:11:55.428Z,68.10
2019-01-26T06:12:56.448Z,68.20
2019-01-26T06:13:57.458Z,68.20
2019-01-26T06:14:58.476Z,68.20
2019-01-26T06:15:59.487Z,68.30
2019-01-26T06:17:00.521Z,68.30
2019-01-26T06:18:01.525Z,68.30
2019-01-26T06:19:02.651Z,67.80
2019-01-26T06:20:07.270Z,67.50
2019-01-26T06:21:08.275Z,67.40
2019-01-26T06:22:09.305Z,67.40
2019-01-26T06:23:10.328Z,67.40
2019-01-26T06:24:11.330Z,67.20
2019-01-26T06:25:17.240Z,67.60
2019-01-26T06:26:18.356Z,67.90
2019-01-26T06:27:19.387Z,67.30
2019-01-26T06:28:20.405Z,67.30
2019-01-26T06:29:21.416Z,67.30
2019-01-26T06:30:23.628Z,67.30
2019-01-26T06:31:24.658Z,67.30
2019-01-26T06:32:25.667Z,67.10
2019-01-26T06:33:26.676Z,67.10
2019-01-26T06:34:27.689Z,68.10
2019-01-26T06:35:28.716Z,68.40
2019-01-26T06:36:29.725Z,68.30
2019-01-26T06:37:30.745Z,68.10
2019-01-26T06:38:31.752Z,68.40
2019-01-26T06:39:32.781Z,67.90
2019-01-26T06:40:33.791Z,67.80
2019-01-26T06:41:34.799Z,67.80
2019-01-26T06:42:35.824Z,67.90
2019-01-26T06:43:36.835Z,68.20
2019-01-26T06:44:37.841Z,67.70
2019-01-26T06:45:38.862Z,67.70
2019-01-26T06:46:39.895Z,67.70
2019-01-26T06:47:41.025Z,68.00
2019-01-26T06:48:42.059Z,67.50
2019-01-26T06:49:43.072Z,67.50
2019-01-26T06:50:44.087Z,67.30
2019-01-26T06:51:47.034Z,67.30
2019-01-26T06:52:48.051Z,67.60
2019-01-26T06:53:49.067Z,67.80
2019-01-26T06:54:50.088Z,68.10
2019-01-26T06:55:51.104Z,68.00
2019-01-26T06:56:52.123Z,68.10
2019-01-26T06:57:53.132Z,68.00
2019-01-26T06:58:54.141Z,67.90
2019-01-26T06:59:55.155Z,67.80
2019-01-26T07:00:56.172Z,67.70
2019-01-26T07:01:57.213Z,67.80
2019-01-26T07:02:58.440Z,67.60
2019-01-26T07:03:59.444Z,67.60
2019-01-26T07:05:02.383Z,67.40
2019-01-26T07:06:05.408Z,67.20
2019-01-26T07:07:08.247Z,67.50
2019-01-26T07:08:11.261Z,67.50
2019-01-26T07:09:12.267Z,67.50
2019-01-26T07:10:13.287Z,67.40
2019-01-26T07:11:14.335Z,67.40
2019-01-26T07:12:15.387Z,67.40
2019-01-26T07:13:16.396Z,68.10
2019-01-26T07:14:17.426Z,67.30
2019-01-26T07:15:18.934Z,67.30
2019-01-26T07:16:20.449Z,67.40
2019-01-26T07:17:22.384Z,67.60
2019-01-26T07:18:23.405Z,67.20
2019-01-26T07:19:24.417Z,67.20
2019-01-26T07:20:25.434Z,67.40
2019-01-26T07:21:26.563Z,67.40
2019-01-26T07:22:27.886Z,67.70
2019-01-26T07:23:28.907Z,67.70
2019-01-26T07:24:29.932Z,67.70
2019-01-26T07:25:31.053Z,67.80
2019-01-26T07:26:32.067Z,67.80
2019-01-26T07:27:33.112Z,67.90
2019-01-26T07:28:34.112Z,67.90
2019-01-26T07:29:35.124Z,68.20
2019-01-26T07:30:36.135Z,68.30
2019-01-26T07:31:37.152Z,68.30
2019-01-26T07:32:38.205Z,68.30
2019-01-26T07:33:39.228Z,68.40
2019-01-26T07:34:40.232Z,68.80
2019-01-26T07:35:41.243Z,68.40
2019-01-26T07:36:42.264Z,68.70
2019-01-26T07:37:43.296Z,68.70
2019-01-26T07:38:44.624Z,68.80
2019-01-26T07:39:45.648Z,68.80
2019-01-26T07:40:46.675Z,68.70
2019-01-26T07:41:47.711Z,68.80
2019-01-26T07:42:48.731Z,68.80
2019-01-26T07:43:49.750Z,68.70
2019-01-26T07:44:50.759Z,68.90
2019-01-26T07:45:51.775Z,69.60
2019-01-26T07:46:52.795Z,68.70
2019-01-26T07:47:53.819Z,68.50
2019-01-26T07:48:54.863Z,68.50
2019-01-26T07:49:55.888Z,68.70
2019-01-26T07:50:56.906Z,68.70
2019-01-26T07:51:57.923Z,68.80
2019-01-26T07:52:58.993Z,68.80
2019-01-26T07:54:00.075Z,68.80
2019-01-26T07:55:01.106Z,68.80
2019-01-26T07:56:02.119Z,68.70
2019-01-26T07:57:03.439Z,68.80
2019-01-26T07:58:04.690Z,68.80
2019-01-26T07:59:05.695Z,68.30
2019-01-26T08:00:13.556Z,68.40
2019-01-26T08:01:14.586Z,68.30
2019-01-26T08:02:15.796Z,68.30
2019-01-26T08:03:16.928Z,68.10
2019-01-26T08:04:17.942Z,67.90
2019-01-26T08:05:19.198Z,67.90
2019-01-26T08:06:20.198Z,68.10
2019-01-26T08:07:21.223Z,68.20
2019-01-26T08:08:22.245Z,68.10
2019-01-26T08:09:23.253Z,68.00
2019-01-26T08:10:25.077Z,68.00
2019-01-26T08:11:26.124Z,67.90
2019-01-26T08:12:27.199Z,67.80
2019-01-26T08:13:28.248Z,68.00
2019-01-26T08:14:29.277Z,68.20
2019-01-26T08:15:31.385Z,68.00
2019-01-26T08:16:32.391Z,67.90
2019-01-26T08:17:33.413Z,67.90
2019-01-26T08:18:34.456Z,68.00
2019-01-26T08:19:35.460Z,68.00
2019-01-26T08:20:36.492Z,68.20
2019-01-26T08:21:37.515Z,68.20
2019-01-26T08:22:38.549Z,68.30
2019-01-26T08:23:39.561Z,68.40
2019-01-26T08:24:40.567Z,68.50
2019-01-26T08:25:41.596Z,68.50
2019-01-26T08:26:42.605Z,68.60
2019-01-26T08:27:43.619Z,68.80
2019-01-26T08:28:44.656Z,69.00
2019-01-26T08:29:45.708Z,68.80
2019-01-26T08:30:46.795Z,68.50
2019-01-26T08:31:47.822Z,68.80
2019-01-26T08:32:49.234Z,69.00
2019-01-26T08:33:50.267Z,69.10
2019-01-26T08:34:51.272Z,69.10
2019-01-26T08:35:52.304Z,69.00
2019-01-26T08:36:53.316Z,69.10
2019-01-26T08:37:54.331Z,69.10
2019-01-26T08:38:55.365Z,69.10
2019-01-26T08:39:56.384Z,69.10
2019-01-26T19:28:14.749Z,75.50
2019-01-26T19:29:15.765Z,76.10
2019-01-26T19:30:19.701Z,75.80
2019-01-26T19:31:20.712Z,75.30
2019-01-26T19:32:21.737Z,75.20
2019-01-26T19:33:22.763Z,75.00
2019-01-26T19:34:23.905Z,74.90
2019-01-26T19:35:25.045Z,74.60
2019-01-26T19:36:26.121Z,74.40
2019-01-26T19:37:27.135Z,74.10
2019-01-26T19:38:28.149Z,72.90
2019-01-26T19:39:29.192Z,72.70
2019-01-26T19:40:30.210Z,72.80
2019-01-26T19:41:31.237Z,72.50
2019-01-26T19:42:32.269Z,71.90
2019-01-26T19:43:33.279Z,72.20
2019-01-26T19:44:34.293Z,72.00
2019-01-26T19:45:35.325Z,71.60
2019-01-26T19:46:36.401Z,71.70
2019-01-26T19:47:37.531Z,70.90
2019-01-26T19:48:38.525Z,70.90
2019-01-26T19:49:39.536Z,70.50
2019-01-26T19:50:40.555Z,70.60
2019-01-26T19:51:41.576Z,70.90
2019-01-26T19:52:42.605Z,70.80
2019-01-26T19:53:43.741Z,71.00
2019-01-26T19:54:44.745Z,70.40
2019-01-26T19:55:45.803Z,70.30
2019-01-26T19:56:46.807Z,70.70
2019-01-26T19:57:48.228Z,70.60
2019-01-26T19:58:49.252Z,70.30
2019-01-26T19:59:50.268Z,70.20
2019-01-26T20:00:51.296Z,70.30
2019-01-26T20:01:52.403Z,70.20
2019-01-26T20:02:53.425Z,70.30
2019-01-26T20:03:54.433Z,70.40
2019-01-26T20:04:55.465Z,70.30
2019-01-26T20:05:56.494Z,70.00
2019-01-26T20:06:57.523Z,70.20
2019-01-26T20:07:58.528Z,69.90
2019-01-26T20:08:59.539Z,69.70
2019-01-26T20:10:00.583Z,69.90
2019-01-26T20:11:01.590Z,70.20
2019-01-26T20:12:02.927Z,70.40
2019-01-26T20:13:03.935Z,70.10
2019-01-26T20:14:05.041Z,70.30
2019-01-26T20:15:09.592Z,70.30
2019-01-26T20:16:10.757Z,69.80
2019-01-26T20:17:11.827Z,70.60
2019-01-26T20:18:13.043Z,69.50
2019-01-26T20:19:14.080Z,69.30
2019-01-26T20:20:30.442Z,69.60
2019-01-26T20:21:31.738Z,69.10
2019-01-26T20:22:32.779Z,69.60
2019-01-26T20:23:33.948Z,69.20
2019-01-26T20:24:34.942Z,69.20
2019-01-26T20:25:35.981Z,69.30
2019-01-26T20:26:37.004Z,69.50
2019-01-26T20:27:38.020Z,69.10
2019-01-26T20:28:39.043Z,69.10
2019-01-26T20:29:40.073Z,68.90
2019-01-26T20:30:41.106Z,68.90
2019-01-26T20:31:42.134Z,69.10
2019-01-26T20:32:43.251Z,68.70
2019-01-26T20:33:44.264Z,69.00
2019-01-26T20:34:45.385Z,68.60
2019-01-26T20:35:46.436Z,68.90
2019-01-26T20:36:47.423Z,69.00
2019-01-26T20:37:48.650Z,68.90
2019-01-26T20:38:49.671Z,69.00
2019-01-26T20:39:50.709Z,69.00
2019-01-26T20:40:51.739Z,68.70
2019-01-26T20:41:52.803Z,68.80
2019-01-26T20:42:53.849Z,68.20
2019-01-26T20:43:54.928Z,68.70
2019-01-26T20:44:55.956Z,68.70
2019-01-26T20:45:56.969Z,69.40
2019-01-26T20:46:58.000Z,68.30
2019-01-26T20:47:59.018Z,68.50
2019-01-26T20:49:00.047Z,68.30
2019-01-26T20:50:01.063Z,68.20
2019-01-26T20:51:02.085Z,68.10
2019-01-26T20:52:03.212Z,68.10
2019-01-26T20:53:04.343Z,67.90
2019-01-26T20:54:05.470Z,68.20
2019-01-26T20:55:08.800Z,68.00
2019-01-26T20:56:09.843Z,68.00
2019-01-26T20:57:10.839Z,68.20
2019-01-26T20:58:11.880Z,68.00
2019-01-26T20:59:12.891Z,68.20
2019-01-26T21:00:22.616Z,68.20
2019-01-26T21:01:23.652Z,68.30
2019-01-26T21:02:24.686Z,68.40
2019-01-26T21:03:25.739Z,68.30
2019-01-26T21:04:26.744Z,68.20
2019-01-26T21:05:28.088Z,68.50
2019-01-26T21:06:29.136Z,68.40
2019-01-26T21:07:30.140Z,68.40
2019-01-26T21:08:31.172Z,68.50
2019-01-26T21:09:32.210Z,68.50
2019-01-26T21:10:33.245Z,68.40
2019-01-26T21:11:34.271Z,68.50
2019-01-26T21:12:35.288Z,68.30
2019-01-26T21:13:36.321Z,68.30
2019-01-26T21:14:37.350Z,68.40
2019-01-26T21:15:38.369Z,68.40
2019-01-26T21:16:39.393Z,68.30
2019-01-26T21:17:40.445Z,68.60
2019-01-26T21:18:41.540Z,68.60
2019-01-26T21:19:42.565Z,68.50
2019-01-26T21:20:43.589Z,68.40
2019-01-26T21:21:44.607Z,68.50
2019-01-26T21:22:46.042Z,68.20
2019-01-26T21:23:47.066Z,68.50
2019-01-26T21:24:48.089Z,68.60
2019-01-26T21:25:49.122Z,68.70
2019-01-26T21:26:50.228Z,68.80
2019-01-26T21:27:51.378Z,68.80
2019-01-26T21:28:52.492Z,68.80
2019-01-26T21:29:53.517Z,69.70
2019-01-26T21:30:54.531Z,69.10
2019-01-26T21:31:55.594Z,69.00
2019-01-26T21:32:56.609Z,69.00
2019-01-26T21:33:57.623Z,69.00
2019-01-26T21:34:58.632Z,69.00
2019-01-26T21:35:59.661Z,68.80
2019-01-26T21:37:00.683Z,68.90
2019-01-26T21:38:01.702Z,69.00
2019-01-26T21:39:06.226Z,69.00
2019-01-26T21:40:16.356Z,69.00
2019-01-26T21:41:17.468Z,69.10
2019-01-26T21:42:18.499Z,69.10
2019-01-26T21:43:19.503Z,69.20
2019-01-26T21:44:20.832Z,69.40
2019-01-26T21:45:21.942Z,69.70
2019-01-26T21:46:22.974Z,69.40
2019-01-26T21:47:26.409Z,69.40
2019-01-26T21:48:27.432Z,69.50
2019-01-26T21:49:28.456Z,69.40
2019-01-26T21:50:29.589Z,69.50
2019-01-26T21:51:30.604Z,69.50
2019-01-26T21:52:31.647Z,69.40
2019-01-26T21:53:32.665Z,69.30
2019-01-26T21:54:33.688Z,69.40
2019-01-26T21:55:34.702Z,70.20
2019-01-26T21:56:35.730Z,69.40
2019-01-26T21:57:36.763Z,69.40
2019-01-26T21:58:37.784Z,69.20
2019-01-26T21:59:38.801Z,69.40
2019-01-26T22:00:39.927Z,69.40
2019-01-26T22:01:40.951Z,69.40
2019-01-26T22:02:42.082Z,69.40
2019-01-26T22:03:43.292Z,69.50
2019-01-26T22:04:44.332Z,69.40
2019-01-26T22:05:45.364Z,69.40
2019-01-26T22:06:46.405Z,69.30
2019-01-26T22:07:47.475Z,69.30
2019-01-26T22:08:49.047Z,69.30
2019-01-26T22:09:50.137Z,69.30
2019-01-26T22:10:51.156Z,69.30
2019-01-26T22:11:52.176Z,69.40
2019-01-26T22:12:53.197Z,69.50
2019-01-26T22:13:54.211Z,69.30
2019-01-26T22:14:55.227Z,69.40
2019-01-26T22:15:56.244Z,69.50
2019-01-26T22:16:57.257Z,69.30
2019-01-26T22:17:58.384Z,69.30
2019-01-26T22:18:59.397Z,69.10
2019-01-26T22:20:00.428Z,69.20
2019-01-26T22:21:01.436Z,69.10
2019-01-26T22:22:02.570Z,69.10
2019-01-26T22:23:03.641Z,69.10
2019-01-26T22:24:04.673Z,69.00
2019-01-26T22:25:08.696Z,68.90
2019-01-26T22:26:09.701Z,69.00
2019-01-26T22:27:10.735Z,68.90
2019-01-26T22:28:11.769Z,68.90
2019-01-26T22:29:12.801Z,68.90
2019-01-26T22:30:18.947Z,68.70
2019-01-26T22:31:19.973Z,68.60
2019-01-26T22:32:21.093Z,68.70
2019-01-26T22:33:22.138Z,68.60
2019-01-26T22:34:23.183Z,68.40
2019-01-26T22:35:24.299Z,68.30
2019-01-26T22:36:25.334Z,68.40
2019-01-26T22:37:26.352Z,68.40
2019-01-26T22:38:27.415Z,68.20
2019-01-26T22:39:28.439Z,68.00
2019-01-26T22:40:34.030Z,68.10
2019-01-26T22:41:35.036Z,68.10
2019-01-26T22:42:36.061Z,68.30
2019-01-26T22:43:37.096Z,68.30
2019-01-26T22:44:38.119Z,68.20
2019-01-26T22:45:39.137Z,68.00
2019-01-26T22:46:40.162Z,67.90
2019-01-26T22:47:41.182Z,67.90
2019-01-26T22:48:42.213Z,67.70
2019-01-26T22:49:43.240Z,67.60
2019-01-26T22:50:44.253Z,67.60
2019-01-26T22:51:45.277Z,67.90
2019-01-26T22:52:47.031Z,67.90
2019-01-26T22:53:48.103Z,67.80
2019-01-26T22:54:49.121Z,67.90
2019-01-26T22:55:50.140Z,67.90
2019-01-26T22:56:51.169Z,67.70
2019-01-26T22:57:52.184Z,67.90
2019-01-26T22:58:53.408Z,67.70
2019-01-26T22:59:54.498Z,67.70
2019-01-26T23:00:59.865Z,67.80
2019-01-26T23:02:01.093Z,67.70
2019-01-26T23:03:02.309Z,67.50
2019-01-26T23:04:13.373Z,67.70
2019-01-26T23:05:30.026Z,67.60
2019-01-26T23:06:43.588Z,67.40
2019-01-26T23:07:44.617Z,67.30
2019-01-26T23:08:46.969Z,67.40
2019-01-26T23:10:12.780Z,67.40
2019-01-26T23:11:40.536Z,67.20
2019-01-26T23:12:45.355Z,67.20
2019-01-26T23:13:53.309Z,67.20
2019-01-26T23:15:03.631Z,67.30
2019-01-26T23:16:23.255Z,67.20
2019-01-26T23:17:37.360Z,67.40
2019-01-26T23:18:47.848Z,67.50
2019-01-26T23:20:07.325Z,67.50
2019-01-26T23:21:17.803Z,67.50
2019-01-26T23:22:34.738Z,67.50
2019-01-26T23:23:42.586Z,67.70
2019-01-26T23:24:53.517Z,67.80
2019-01-26T23:26:01.150Z,67.60
2019-01-26T23:27:15.089Z,67.50
2019-01-26T23:28:28.415Z,67.30
2019-01-26T23:29:35.786Z,67.60
2019-01-26T23:30:58.908Z,67.50
2019-01-26T23:31:59.931Z,67.30
2019-01-26T23:33:00.958Z,66.80
2019-01-26T23:34:02.094Z,67.40
2019-01-26T23:35:06.138Z,67.40
2019-01-26T23:36:07.252Z,67.30
2019-01-26T23:37:08.259Z,67.40
2019-01-26T23:38:09.298Z,67.60
2019-01-26T23:39:10.408Z,67.60
2019-01-26T23:40:11.644Z,67.70
2019-01-26T23:41:12.871Z,67.70
2019-01-26T23:42:13.876Z,67.70
2019-01-26T23:43:14.904Z,67.80
2019-01-26T23:44:15.936Z,67.70
2019-01-26T23:45:16.954Z,67.80
2019-01-26T23:46:18.082Z,67.90
2019-01-26T23:47:19.113Z,67.70
2019-01-26T23:48:20.158Z,67.70
2019-01-26T23:49:21.253Z,67.80
2019-01-26T23:50:22.280Z,67.90
2019-01-26T23:51:23.313Z,68.70
2019-01-26T23:52:24.338Z,67.60
2019-01-26T23:53:25.357Z,67.50
2019-01-26T23:54:26.400Z,68.00
2019-01-26T23:55:27.420Z,67.50
2019-01-26T23:56:28.466Z,67.40
2019-01-26T23:57:29.496Z,67.40
2019-01-26T23:58:30.511Z,67.50
2019-01-26T23:59:31.536Z,67.40
